Terminal Aerodrome Forecast
Issued by NWS

Home | Current Version | Previous Version | Graphics & Text | Print | Product List | Glossary Off
Versions: 1 2 3 4 5 6 7 8 9 10 11 12 13 14 15 16 17 18 19 20 21 22 23 24 25 26 27 28 29 30 31 32 33 34

334
FTUS43 KLOT 291339 AAB
TAFORD
TAF AMD
KORD 291339Z 2914/3018 06008KT 6SM BR SCT005 OVC200
     FM291500 07011KT P6SM FEW006 OVC200
     FM291700 06013KT P6SM BKN120
     FM292100 07014G22KT P6SM SCT060 BKN100
     FM300100 07011KT P6SM SCT030 OVC060
     FM300800 08016G25KT 4SM -SHRA BKN030 OVC050 PROB30 3010/3013
      2SM -TSRA OVC030CB=

USA.gov is the U.S. government's official web portal to all federal, state and local government web resources and services.